Impacts TAF Board
For situational awareness. Not to be used for flight planning purposes.
IDs:

KSTL - St Louis/Lambert Int, MO, US

Issued at 1505 UTC 01 Mar 2021
Updated at 1704 UTC 01 Mar 2021
Potential Impact None Slight Moderate High
Time1651Z 01/18Z 01/19Z 01/20Z 01/21Z 01/22Z 01/23Z 02/00Z 02/01Z 02/02Z 02/03Z 02/04Z 02/05Z 02/06Z>>
Type OBS PRVL PRVL PRVL PRVL PRVL PRVL PRVL PRVL PRVL PRVL PRVL PRVL PRVL
VIS 10 >6 >6 >6 >6 >6 >6 >6 >6 >6 >6 >6 >6 >6
CIG -- -- -- -- -- -- -- -- -- -- -- -- -- --
Cover SCT FEW FEW FEW FEW FEW FEW FEW FEW FEW FEW FEW FEW FEW
FltCat VFR VFR VFR VFR VFR VFR VFR VFR VFR VFR VFR VFR VFR VFR
WX -- -- -- -- -- -- -- -- -- -- -- -- -- --
WDir 270 320 320 320 320 320 320 320 320 320 320 320 320 320
WSpd 6 6 6 6 6 6 6 6 6 6 6 6 6 6
WGst -- -- -- -- -- -- -- -- -- -- -- -- -- --
Raw TAF
KSTL 011505Z 0115/0218 32006KT P6SM FEW250

Raw METAR
KSTL 011651Z 27006KT 10SM SCT250 06/M05 A3034 RMK AO2 SLP281 T00561050
KSTL 011551Z 31008KT 10SM FEW250 04/M03 A3031 RMK AO2 SLP271 T00391033
KSTL 011451Z 33007KT 10SM FEW250 02/M03 A3027 RMK AO2 SLP257 T00171028 53015

METAR Board
Radar Display
Forecast Discussion
For situational awareness. Not to be used for flight planning purposes.